Pagina principale
METAR-TAF:

METAR-TAF

Aeroporti :

San Gallo, Svizzera

latitudine: 47-29-06N, longitudine: 009-33-43E, altezza: 398 m

Osservazione

Il bollettino è stato emesso 37 minuti fa, alle 19:50 UTC
Vento 1 kt da direzioni variabili
Temperature 19°C
Umidità 88%
Pressione 1018 hPa
Visibilità 10 km o più
Poco nuvoloso ad un'altezza di 5000 ft
Nubi sparse ad un'altezza di 20000 ft
Cielo coperto ad un'altezza di 22000 ft

METAR: LSZR 161950Z AUTO VRB01KT 9999 FEW050 SCT200 OVC220 19/17 Q1018

Ora: 22:27 (20:27 UTC)

Previsione

Il bollettino è stato emesso 6 ore e 2 minuti fa, alle 14:25 UTC
Previsione valida dal 16 alle 15 UTC al 16 alle 24 UTC
Vento 3 kt da direzioni variabili
Visibilità 10 km o più
Poco nuvoloso ad un'altezza di 7000 ft
Evoluzione graduale
dal 16 alle 15 UTC al 16 alle 18 UTC
Visibilità 10 km o più
nessuna nube inferiore a 1500 m e nessun cumulonembo

TAF: LSZR 161425Z 1615/1624 VRB03KT 9999 FEW070 BECMG 1615/1618 CAVOK

Osservazioni e previsioni meteorologiche di più di 4000 aeroporti (messaggi METAR e TAF).

Le stazioni disponibili sono rappresentate dai dischi gialli e rossi sulla carta.

Puntare il mouse per vedere il nome della stazione.

Clicca sopra per visualizzare le osservazioni e previsioni meteorologiche.

Per cambiare la mappa : fare clic sui pulsanti verdi con una croce nera per ingrandire, il pulsante verde con un trattino per diminuire, o sulla freccia verde per le mappe adiacenti.


METAR-TAF: